sensor_id;sensor_type;location;lat;lon;timestamp;temperature;humidity
65752;DHT22;52486;51.098;13.770;2024-01-25T00:00:24;26.50;61.30
65752;DHT22;52486;51.098;13.770;2024-01-25T00:02:50;24.50;60.10
65752;DHT22;52486;51.098;13.770;2024-01-25T00:05:15;24.50;59.80
65752;DHT22;52486;51.098;13.770;2024-01-25T00:07:44;24.30;59.70
65752;DHT22;52486;51.098;13.770;2024-01-25T00:10:10;24.40;57.10
65752;DHT22;52486;51.098;13.770;2024-01-25T00:12:35;25.90;60.70
65752;DHT22;52486;51.098;13.770;2024-01-25T00:15:01;24.30;58.70
65752;DHT22;52486;51.098;13.770;2024-01-25T00:17:26;24.50;58.60
65752;DHT22;52486;51.098;13.770;2024-01-25T00:19:52;24.60;59.50
65752;DHT22;52486;51.098;13.770;2024-01-25T00:22:17;24.50;59.10
65752;DHT22;52486;51.098;13.770;2024-01-25T00:24:44;24.40;59.40
65752;DHT22;52486;51.098;13.770;2024-01-25T00:27:10;24.50;56.90
65752;DHT22;52486;51.098;13.770;2024-01-25T00:29:35;24.70;59.40
65752;DHT22;52486;51.098;13.770;2024-01-25T00:32:02;24.70;59.20
65752;DHT22;52486;51.098;13.770;2024-01-25T00:34:28;24.40;58.80
65752;DHT22;52486;51.098;13.770;2024-01-25T00:36:53;24.70;59.30
65752;DHT22;52486;51.098;13.770;2024-01-25T00:39:19;24.60;58.70
65752;DHT22;52486;51.098;13.770;2024-01-25T00:41:45;24.70;58.80
65752;DHT22;52486;51.098;13.770;2024-01-25T00:44:14;25.20;59.30
65752;DHT22;52486;51.098;13.770;2024-01-25T00:46:40;24.70;58.90
65752;DHT22;52486;51.098;13.770;2024-01-25T00:49:05;24.70;58.90
65752;DHT22;52486;51.098;13.770;2024-01-25T00:51:31;24.70;58.90
65752;DHT22;52486;51.098;13.770;2024-01-25T00:53:57;24.60;58.80
65752;DHT22;52486;51.098;13.770;2024-01-25T00:56:22;24.50;59.00
65752;DHT22;52486;51.098;13.770;2024-01-25T00:58:48;24.70;59.20
65752;DHT22;52486;51.098;13.770;2024-01-25T01:01:14;24.60;59.00
65752;DHT22;52486;51.098;13.770;2024-01-25T01:03:39;24.30;58.20
65752;DHT22;52486;51.098;13.770;2024-01-25T01:06:05;24.60;58.50
65752;DHT22;52486;51.098;13.770;2024-01-25T01:08:31;24.70;57.90
65752;DHT22;52486;51.098;13.770;2024-01-25T01:10:56;24.60;58.70
65752;DHT22;52486;51.098;13.770;2024-01-25T01:13:24;24.50;59.10
65752;DHT22;52486;51.098;13.770;2024-01-25T01:15:49;24.70;56.60
65752;DHT22;52486;51.098;13.770;2024-01-25T01:18:15;24.70;58.30
65752;DHT22;52486;51.098;13.770;2024-01-25T01:20:41;26.00;60.00
65752;DHT22;52486;51.098;13.770;2024-01-25T01:23:06;24.70;58.90
65752;DHT22;52486;51.098;13.770;2024-01-25T01:25:32;24.70;59.00
65752;DHT22;52486;51.098;13.770;2024-01-25T01:27:58;24.70;59.10
65752;DHT22;52486;51.098;13.770;2024-01-25T01:30:23;24.70;56.50
65752;DHT22;52486;51.098;13.770;2024-01-25T01:32:49;24.80;59.10
65752;DHT22;52486;51.098;13.770;2024-01-25T01:35:14;24.70;58.80
65752;DHT22;52486;51.098;13.770;2024-01-25T01:37:40;27.00;60.50
65752;DHT22;52486;51.098;13.770;2024-01-25T01:40:06;26.80;60.20
65752;DHT22;52486;51.098;13.770;2024-01-25T01:42:31;24.90;57.90
65752;DHT22;52486;51.098;13.770;2024-01-25T01:44:58;24.80;58.70
65752;DHT22;52486;51.098;13.770;2024-01-25T01:47:24;25.50;59.50
65752;DHT22;52486;51.098;13.770;2024-01-25T01:49:50;24.70;56.40
65752;DHT22;52486;51.098;13.770;2024-01-25T01:52:16;24.80;59.00
65752;DHT22;52486;51.098;13.770;2024-01-25T01:54:43;24.60;56.50
65752;DHT22;52486;51.098;13.770;2024-01-25T01:57:08;24.80;59.40
65752;DHT22;52486;51.098;13.770;2024-01-25T01:59:34;24.70;59.00
65752;DHT22;52486;51.098;13.770;2024-01-25T02:02:01;24.90;58.70
65752;DHT22;52486;51.098;13.770;2024-01-25T02:04:26;24.50;56.40
65752;DHT22;52486;51.098;13.770;2024-01-25T02:06:53;24.50;58.90
65752;DHT22;52486;51.098;13.770;2024-01-25T02:09:18;24.80;56.40
65752;DHT22;52486;51.098;13.770;2024-01-25T02:11:44;24.80;58.60
65752;DHT22;52486;51.098;13.770;2024-01-25T02:14:09;24.50;58.80
65752;DHT22;52486;51.098;13.770;2024-01-25T02:16:38;26.40;58.00
65752;DHT22;52486;51.098;13.770;2024-01-25T02:19:03;26.80;60.20
65752;DHT22;52486;51.098;13.770;2024-01-25T02:21:29;25.40;59.10
65752;DHT22;52486;51.098;13.770;2024-01-25T02:23:54;24.50;58.60
65752;DHT22;52486;51.098;13.770;2024-01-25T02:26:20;27.00;60.30
65752;DHT22;52486;51.098;13.770;2024-01-25T02:28:45;24.70;58.70
65752;DHT22;52486;51.098;13.770;2024-01-25T02:31:11;25.50;58.70
65752;DHT22;52486;51.098;13.770;2024-01-25T02:33:37;24.50;58.60
65752;DHT22;52486;51.098;13.770;2024-01-25T02:36:02;25.00;58.90
65752;DHT22;52486;51.098;13.770;2024-01-25T02:38:28;24.70;58.40
65752;DHT22;52486;51.098;13.770;2024-01-25T02:40:53;24.70;58.80
65752;DHT22;52486;51.098;13.770;2024-01-25T02:43:19;26.90;59.90
65752;DHT22;52486;51.098;13.770;2024-01-25T02:45:44;26.10;59.70
65752;DHT22;52486;51.098;13.770;2024-01-25T02:48:10;25.30;59.50
65752;DHT22;52486;51.098;13.770;2024-01-25T02:50:35;25.20;59.00
65752;DHT22;52486;51.098;13.770;2024-01-25T02:53:02;24.80;58.90
65752;DHT22;52486;51.098;13.770;2024-01-25T02:55:28;24.70;56.30
65752;DHT22;52486;51.098;13.770;2024-01-25T02:57:55;24.60;59.00
65752;DHT22;52486;51.098;13.770;2024-01-25T03:00:22;24.60;56.20
65752;DHT22;52486;51.098;13.770;2024-01-25T03:02:47;24.70;56.30
65752;DHT22;52486;51.098;13.770;2024-01-25T03:05:12;25.10;59.00
65752;DHT22;52486;51.098;13.770;2024-01-25T03:07:39;24.60;58.70
65752;DHT22;52486;51.098;13.770;2024-01-25T03:10:05;24.70;56.20
65752;DHT22;52486;51.098;13.770;2024-01-25T03:12:30;24.10;57.10
65752;DHT22;52486;51.098;13.770;2024-01-25T03:14:56;24.60;58.60
65752;DHT22;52486;51.098;13.770;2024-01-25T03:17:21;27.30;60.40
65752;DHT22;52486;51.098;13.770;2024-01-25T03:19:47;24.80;58.70
65752;DHT22;52486;51.098;13.770;2024-01-25T03:22:14;25.00;58.60
65752;DHT22;52486;51.098;13.770;2024-01-25T03:24:40;24.90;56.20
65752;DHT22;52486;51.098;13.770;2024-01-25T03:27:05;24.80;58.60
65752;DHT22;52486;51.098;13.770;2024-01-25T03:29:32;24.70;58.60
65752;DHT22;52486;51.098;13.770;2024-01-25T03:32:03;25.00;56.20
65752;DHT22;52486;51.098;13.770;2024-01-25T03:34:30;25.00;56.20
65752;DHT22;52486;51.098;13.770;2024-01-25T03:36:55;24.60;56.10
65752;DHT22;52486;51.098;13.770;2024-01-25T03:39:20;24.90;58.90
65752;DHT22;52486;51.098;13.770;2024-01-25T03:41:47;24.50;58.60
65752;DHT22;52486;51.098;13.770;2024-01-25T03:44:16;24.60;56.20
65752;DHT22;52486;51.098;13.770;2024-01-25T03:46:42;24.80;56.30
65752;DHT22;52486;51.098;13.770;2024-01-25T03:49:10;27.80;60.80
65752;DHT22;52486;51.098;13.770;2024-01-25T03:51:37;25.60;56.70
65752;DHT22;52486;51.098;13.770;2024-01-25T03:54:02;24.80;56.20
65752;DHT22;52486;51.098;13.770;2024-01-25T03:56:28;24.80;58.60
65752;DHT22;52486;51.098;13.770;2024-01-25T03:58:54;24.70;58.70
65752;DHT22;52486;51.098;13.770;2024-01-25T04:01:20;24.90;56.20
65752;DHT22;52486;51.098;13.770;2024-01-25T04:03:46;24.70;58.40
65752;DHT22;52486;51.098;13.770;2024-01-25T04:06:12;25.00;56.10
65752;DHT22;52486;51.098;13.770;2024-01-25T04:08:37;25.00;58.60
65752;DHT22;52486;51.098;13.770;2024-01-25T04:11:04;24.80;58.50
65752;DHT22;52486;51.098;13.770;2024-01-25T04:13:29;26.00;59.40
65752;DHT22;52486;51.098;13.770;2024-01-25T04:15:54;24.70;58.70
65752;DHT22;52486;51.098;13.770;2024-01-25T04:18:20;25.60;59.10
65752;DHT22;52486;51.098;13.770;2024-01-25T04:20:45;24.80;58.70
65752;DHT22;52486;51.098;13.770;2024-01-25T04:23:12;26.80;59.70
65752;DHT22;52486;51.098;13.770;2024-01-25T04:25:37;25.00;58.80
65752;DHT22;52486;51.098;13.770;2024-01-25T04:28:03;25.00;58.70
65752;DHT22;52486;51.098;13.770;2024-01-25T04:30:28;24.70;58.60
65752;DHT22;52486;51.098;13.770;2024-01-25T04:32:56;26.50;59.70
65752;DHT22;52486;51.098;13.770;2024-01-25T04:35:21;26.10;59.60
65752;DHT22;52486;51.098;13.770;2024-01-25T04:37:47;24.70;58.70
65752;DHT22;52486;51.098;13.770;2024-01-25T04:40:12;24.90;58.70
65752;DHT22;52486;51.098;13.770;2024-01-25T04:42:38;24.80;58.60
65752;DHT22;52486;51.098;13.770;2024-01-25T04:45:03;25.30;59.00
65752;DHT22;52486;51.098;13.770;2024-01-25T04:47:32;24.70;57.90
65752;DHT22;52486;51.098;13.770;2024-01-25T04:49:57;24.80;56.10
65752;DHT22;52486;51.098;13.770;2024-01-25T04:52:23;24.80;58.60
65752;DHT22;52486;51.098;13.770;2024-01-25T04:54:48;24.80;58.60
65752;DHT22;52486;51.098;13.770;2024-01-25T04:57:16;24.60;58.30
65752;DHT22;52486;51.098;13.770;2024-01-25T04:59:42;24.80;56.20
65752;DHT22;52486;51.098;13.770;2024-01-25T05:02:07;24.80;58.40
65752;DHT22;52486;51.098;13.770;2024-01-25T05:04:34;24.70;58.60
65752;DHT22;52486;51.098;13.770;2024-01-25T05:07:00;25.20;56.30
65752;DHT22;52486;51.098;13.770;2024-01-25T05:09:26;25.20;58.80
65752;DHT22;52486;51.098;13.770;2024-01-25T05:11:51;24.80;58.60
65752;DHT22;52486;51.098;13.770;2024-01-25T05:14:17;25.90;54.50
65752;DHT22;52486;51.098;13.770;2024-01-25T05:16:42;21.40;53.40
65752;DHT22;52486;51.098;13.770;2024-01-25T05:19:09;21.40;58.00
65752;DHT22;52486;51.098;13.770;2024-01-25T05:21:35;21.30;55.80
65752;DHT22;52486;51.098;13.770;2024-01-25T05:24:01;21.30;54.10
65752;DHT22;52486;51.098;13.770;2024-01-25T05:26:26;20.80;58.00
65752;DHT22;52486;51.098;13.770;2024-01-25T05:28:52;21.00;59.10
65752;DHT22;52486;51.098;13.770;2024-01-25T05:31:17;20.40;59.30
65752;DHT22;52486;51.098;13.770;2024-01-25T05:33:43;20.20;60.00
65752;DHT22;52486;51.098;13.770;2024-01-25T05:36:08;21.10;62.20
65752;DHT22;52486;51.098;13.770;2024-01-25T05:38:35;20.60;59.20
65752;DHT22;52486;51.098;13.770;2024-01-25T05:41:01;20.40;59.80
65752;DHT22;52486;51.098;13.770;2024-01-25T05:43:28;20.00;57.90
65752;DHT22;52486;51.098;13.770;2024-01-25T05:45:53;19.40;57.80
65752;DHT22;52486;51.098;13.770;2024-01-25T05:48:20;19.00;61.20
65752;DHT22;52486;51.098;13.770;2024-01-25T05:50:45;18.40;61.30
65752;DHT22;52486;51.098;13.770;2024-01-25T05:53:11;18.50;63.10
65752;DHT22;52486;51.098;13.770;2024-01-25T05:55:36;19.10;63.50
65752;DHT22;52486;51.098;13.770;2024-01-25T05:58:02;19.40;62.90
65752;DHT22;52486;51.098;13.770;2024-01-25T06:00:27;20.20;62.60
65752;DHT22;52486;51.098;13.770;2024-01-25T06:02:53;23.60;64.40
65752;DHT22;52486;51.098;13.770;2024-01-25T06:05:19;20.80;62.50
65752;DHT22;52486;51.098;13.770;2024-01-25T06:07:44;20.90;62.00
65752;DHT22;52486;51.098;13.770;2024-01-25T06:10:10;21.80;61.80
65752;DHT22;52486;51.098;13.770;2024-01-25T06:12:35;21.50;61.40
65752;DHT22;52486;51.098;13.770;2024-01-25T06:15:01;23.30;61.70
65752;DHT22;52486;51.098;13.770;2024-01-25T06:17:26;24.00;62.10
65752;DHT22;52486;51.098;13.770;2024-01-25T06:19:52;21.80;59.70
65752;DHT22;52486;51.098;13.770;2024-01-25T06:22:17;21.70;60.10
65752;DHT22;52486;51.098;13.770;2024-01-25T06:24:43;24.70;61.30
65752;DHT22;52486;51.098;13.770;2024-01-25T06:27:11;25.10;61.10
65752;DHT22;52486;51.098;13.770;2024-01-25T06:29:37;22.20;56.80
65752;DHT22;52486;51.098;13.770;2024-01-25T06:32:03;24.20;60.00
65752;DHT22;52486;51.098;13.770;2024-01-25T06:34:28;22.40;58.30
65752;DHT22;52486;51.098;13.770;2024-01-25T06:36:54;22.50;58.70
65752;DHT22;52486;51.098;13.770;2024-01-25T06:39:19;22.60;58.60
65752;DHT22;52486;51.098;13.770;2024-01-25T06:41:45;22.80;58.60
65752;DHT22;52486;51.098;13.770;2024-01-25T06:44:10;25.60;60.10
65752;DHT22;52486;51.098;13.770;2024-01-25T06:46:36;22.90;58.40
65752;DHT22;52486;51.098;13.770;2024-01-25T06:49:02;23.00;58.60
65752;DHT22;52486;51.098;13.770;2024-01-25T06:51:28;23.90;58.80
65752;DHT22;52486;51.098;13.770;2024-01-25T06:53:53;25.30;59.70
65752;DHT22;52486;51.098;13.770;2024-01-25T06:56:20;23.10;58.50
65752;DHT22;52486;51.098;13.770;2024-01-25T06:58:45;23.20;56.20
65752;DHT22;52486;51.098;13.770;2024-01-25T07:01:11;23.20;58.40
65752;DHT22;52486;51.098;13.770;2024-01-25T07:03:37;23.40;58.60
65752;DHT22;52486;51.098;13.770;2024-01-25T07:06:04;23.30;56.10
65752;DHT22;52486;51.098;13.770;2024-01-25T07:08:29;23.20;58.10
65752;DHT22;52486;51.098;13.770;2024-01-25T07:10:55;23.60;58.00
65752;DHT22;52486;51.098;13.770;2024-01-25T07:13:21;23.40;60.60
65752;DHT22;52486;51.098;13.770;2024-01-25T07:15:47;26.60;62.90
65752;DHT22;52486;51.098;13.770;2024-01-25T07:18:13;25.00;61.30
65752;DHT22;52486;51.098;13.770;2024-01-25T07:20:38;23.60;60.10
65752;DHT22;52486;51.098;13.770;2024-01-25T07:23:04;23.70;60.30
65752;DHT22;52486;51.098;13.770;2024-01-25T07:25:29;23.60;60.10
65752;DHT22;52486;51.098;13.770;2024-01-25T07:27:54;23.70;59.70
65752;DHT22;52486;51.098;13.770;2024-01-25T07:30:20;23.70;59.80
65752;DHT22;52486;51.098;13.770;2024-01-25T07:32:45;23.70;59.60
65752;DHT22;52486;51.098;13.770;2024-01-25T07:35:12;23.70;59.10
65752;DHT22;52486;51.098;13.770;2024-01-25T07:37:38;23.80;59.10
65752;DHT22;52486;51.098;13.770;2024-01-25T07:40:04;24.00;58.70
65752;DHT22;52486;51.098;13.770;2024-01-25T07:42:30;24.10;57.40
65752;DHT22;52486;51.098;13.770;2024-01-25T07:44:55;23.70;57.60
65752;DHT22;52486;51.098;13.770;2024-01-25T07:47:22;23.70;58.30
65752;DHT22;52486;51.098;13.770;2024-01-25T07:49:49;24.80;55.30
65752;DHT22;52486;51.098;13.770;2024-01-25T07:52:14;23.50;55.00
65752;DHT22;52486;51.098;13.770;2024-01-25T07:54:40;23.70;58.20
65752;DHT22;52486;51.098;13.770;2024-01-25T07:57:05;25.20;59.30
65752;DHT22;52486;51.098;13.770;2024-01-25T07:59:31;23.40;58.70
65752;DHT22;52486;51.098;13.770;2024-01-25T08:01:56;23.60;58.80
65752;DHT22;52486;51.098;13.770;2024-01-25T08:04:22;23.40;58.40
65752;DHT22;52486;51.098;13.770;2024-01-25T08:06:47;23.30;58.50
65752;DHT22;52486;51.098;13.770;2024-01-25T08:09:14;24.70;57.90
65752;DHT22;52486;51.098;13.770;2024-01-25T08:11:39;22.80;55.70
65752;DHT22;52486;51.098;13.770;2024-01-25T08:14:05;22.70;57.30
65752;DHT22;52486;51.098;13.770;2024-01-25T08:16:31;22.40;58.10
65752;DHT22;52486;51.098;13.770;2024-01-25T08:18:56;22.50;58.90
65752;DHT22;52486;51.098;13.770;2024-01-25T08:21:24;22.20;56.40
65752;DHT22;52486;51.098;13.770;2024-01-25T08:23:49;22.10;59.10
65752;DHT22;52486;51.098;13.770;2024-01-25T08:26:15;22.00;60.00
65752;DHT22;52486;51.098;13.770;2024-01-25T08:28:41;22.50;59.90
65752;DHT22;52486;51.098;13.770;2024-01-25T08:31:07;21.60;58.40
65752;DHT22;52486;51.098;13.770;2024-01-25T08:33:32;21.60;60.90
65752;DHT22;52486;51.098;13.770;2024-01-25T08:35:58;21.60;60.70
65752;DHT22;52486;51.098;13.770;2024-01-25T08:38:25;18.70;58.40
65752;DHT22;52486;51.098;13.770;2024-01-25T08:40:50;21.50;59.00
65752;DHT22;52486;51.098;13.770;2024-01-25T08:43:16;21.50;60.00
65752;DHT22;52486;51.098;13.770;2024-01-25T08:45:41;22.30;61.70
65752;DHT22;52486;51.098;13.770;2024-01-25T08:48:07;21.20;62.10
65752;DHT22;52486;51.098;13.770;2024-01-25T08:50:34;23.10;62.30
65752;DHT22;52486;51.098;13.770;2024-01-25T08:53:00;21.00;60.50
65752;DHT22;52486;51.098;13.770;2024-01-25T08:55:25;20.70;60.80
65752;DHT22;52486;51.098;13.770;2024-01-25T08:57:51;22.10;61.90
65752;DHT22;52486;51.098;13.770;2024-01-25T09:00:16;20.90;60.10
65752;DHT22;52486;51.098;13.770;2024-01-25T09:02:42;21.20;61.00
65752;DHT22;52486;51.098;13.770;2024-01-25T09:05:08;20.80;60.50
65752;DHT22;52486;51.098;13.770;2024-01-25T09:07:34;23.70;62.90
65752;DHT22;52486;51.098;13.770;2024-01-25T09:09:59;21.30;61.90
65752;DHT22;52486;51.098;13.770;2024-01-25T09:12:25;21.60;61.90
65752;DHT22;52486;51.098;13.770;2024-01-25T09:14:50;20.90;61.70
65752;DHT22;52486;51.098;13.770;2024-01-25T09:17:17;22.00;62.00
65752;DHT22;52486;51.098;13.770;2024-01-25T09:19:50;21.20;60.10
65752;DHT22;52486;51.098;13.770;2024-01-25T09:22:16;21.90;62.60
65752;DHT22;52486;51.098;13.770;2024-01-25T09:24:43;21.50;62.00
65752;DHT22;52486;51.098;13.770;2024-01-25T09:27:09;24.30;62.00
65752;DHT22;52486;51.098;13.770;2024-01-25T09:29:34;22.70;61.00
65752;DHT22;52486;51.098;13.770;2024-01-25T09:32:00;21.50;60.60
65752;DHT22;52486;51.098;13.770;2024-01-25T09:34:25;22.60;61.30
65752;DHT22;52486;51.098;13.770;2024-01-25T09:36:51;21.20;61.40
65752;DHT22;52486;51.098;13.770;2024-01-25T09:39:17;22.10;62.30
65752;DHT22;52486;51.098;13.770;2024-01-25T09:41:42;22.60;62.50
65752;DHT22;52486;51.098;13.770;2024-01-25T09:44:08;24.10;63.30
65752;DHT22;52486;51.098;13.770;2024-01-25T09:46:34;22.10;61.70
65752;DHT22;52486;51.098;13.770;2024-01-25T09:49:00;22.30;61.70
65752;DHT22;52486;51.098;13.770;2024-01-25T09:51:26;22.40;61.50
65752;DHT22;52486;51.098;13.770;2024-01-25T09:53:52;24.00;61.70
65752;DHT22;52486;51.098;13.770;2024-01-25T09:56:19;22.70;60.50
65752;DHT22;52486;51.098;13.770;2024-01-25T09:58:45;22.80;60.40
65752;DHT22;52486;51.098;13.770;2024-01-25T10:01:12;23.00;60.10
65752;DHT22;52486;51.098;13.770;2024-01-25T10:03:39;25.30;61.20
65752;DHT22;52486;51.098;13.770;2024-01-25T10:06:07;23.90;60.40
65752;DHT22;52486;51.098;13.770;2024-01-25T10:08:34;22.90;59.40
65752;DHT22;52486;51.098;13.770;2024-01-25T10:10:59;23.20;59.90
65752;DHT22;52486;51.098;13.770;2024-01-25T10:13:26;23.30;58.60
65752;DHT22;52486;51.098;13.770;2024-01-25T10:15:55;23.40;56.80
65752;DHT22;52486;51.098;13.770;2024-01-25T10:18:24;24.60;57.50
65752;DHT22;52486;51.098;13.770;2024-01-25T10:20:52;23.40;56.70
65752;DHT22;52486;51.098;13.770;2024-01-25T10:23:18;23.40;58.20
65752;DHT22;52486;51.098;13.770;2024-01-25T10:25:43;23.60;57.80
65752;DHT22;52486;51.098;13.770;2024-01-25T10:28:09;26.10;59.70
65752;DHT22;52486;51.098;13.770;2024-01-25T10:30:35;25.60;60.10
65752;DHT22;52486;51.098;13.770;2024-01-25T10:33:01;23.50;58.70
65752;DHT22;52486;51.098;13.770;2024-01-25T10:35:28;26.90;60.50
65752;DHT22;52486;51.098;13.770;2024-01-25T10:37:54;24.20;56.60
65752;DHT22;52486;51.098;13.770;2024-01-25T10:40:20;24.20;58.60
65752;DHT22;52486;51.098;13.770;2024-01-25T10:42:46;23.80;57.70
65752;DHT22;52486;51.098;13.770;2024-01-25T10:45:11;23.90;56.70
65752;DHT22;52486;51.098;13.770;2024-01-25T10:47:37;23.90;57.10
65752;DHT22;52486;51.098;13.770;2024-01-25T10:50:07;24.10;57.00
65752;DHT22;52486;51.098;13.770;2024-01-25T10:52:34;24.10;56.70
65752;DHT22;52486;51.098;13.770;2024-01-25T10:55:01;24.20;57.20
65752;DHT22;52486;51.098;13.770;2024-01-25T10:57:35;24.20;57.10
65752;DHT22;52486;51.098;13.770;2024-01-25T11:00:05;24.00;55.00
65752;DHT22;52486;51.098;13.770;2024-01-25T11:02:31;24.30;58.80
65752;DHT22;52486;51.098;13.770;2024-01-25T11:04:56;24.60;58.30
65752;DHT22;52486;51.098;13.770;2024-01-25T11:07:22;24.10;57.60
65752;DHT22;52486;51.098;13.770;2024-01-25T11:09:50;24.30;58.00
65752;DHT22;52486;51.098;13.770;2024-01-25T11:12:17;24.40;57.90
65752;DHT22;52486;51.098;13.770;2024-01-25T11:14:43;24.50;55.60
65752;DHT22;52486;51.098;13.770;2024-01-25T11:17:24;24.70;58.30
65752;DHT22;52486;51.098;13.770;2024-01-25T11:19:49;24.50;55.60
65752;DHT22;52486;51.098;13.770;2024-01-25T11:22:18;26.90;58.00
65752;DHT22;52486;51.098;13.770;2024-01-25T11:24:43;26.90;59.80
65752;DHT22;52486;51.098;13.770;2024-01-25T11:27:10;24.50;56.10
65752;DHT22;52486;51.098;13.770;2024-01-25T11:29:37;24.50;56.10
65752;DHT22;52486;51.098;13.770;2024-01-25T11:32:03;26.20;57.40
65752;DHT22;52486;51.098;13.770;2024-01-25T11:34:29;24.70;56.60
65752;DHT22;52486;51.098;13.770;2024-01-25T11:36:57;24.70;56.70
65752;DHT22;52486;51.098;13.770;2024-01-25T11:39:23;24.50;56.40
65752;DHT22;52486;51.098;13.770;2024-01-25T11:41:50;24.50;56.50
65752;DHT22;52486;51.098;13.770;2024-01-25T11:44:16;24.60;56.00
65752;DHT22;52486;51.098;13.770;2024-01-25T11:46:42;26.10;58.20
65752;DHT22;52486;51.098;13.770;2024-01-25T11:49:08;24.50;54.10
65752;DHT22;52486;51.098;13.770;2024-01-25T11:51:34;24.70;55.60
65752;DHT22;52486;51.098;13.770;2024-01-25T11:54:00;24.90;56.10
65752;DHT22;52486;51.098;13.770;2024-01-25T11:56:26;24.60;56.30
65752;DHT22;52486;51.098;13.770;2024-01-25T11:58:53;24.60;56.20
65752;DHT22;52486;51.098;13.770;2024-01-25T12:01:21;24.90;56.00
65752;DHT22;52486;51.098;13.770;2024-01-25T12:03:47;24.80;56.00
65752;DHT22;52486;51.098;13.770;2024-01-25T12:06:12;24.90;56.40
65752;DHT22;52486;51.098;13.770;2024-01-25T12:08:38;24.70;56.30
65752;DHT22;52486;51.098;13.770;2024-01-25T12:11:09;25.30;56.50
65752;DHT22;52486;51.098;13.770;2024-01-25T12:13:35;25.10;54.00
65752;DHT22;52486;51.098;13.770;2024-01-25T12:16:02;27.30;57.60
65752;DHT22;52486;51.098;13.770;2024-01-25T12:18:29;25.20;56.10
65752;DHT22;52486;51.098;13.770;2024-01-25T12:20:54;25.20;55.80
65752;DHT22;52486;51.098;13.770;2024-01-25T12:23:20;24.80;56.30
65752;DHT22;52486;51.098;13.770;2024-01-25T12:25:45;25.30;56.80
65752;DHT22;52486;51.098;13.770;2024-01-25T12:28:11;25.30;56.60
65752;DHT22;52486;51.098;13.770;2024-01-25T12:30:36;27.50;59.00
65752;DHT22;52486;51.098;13.770;2024-01-25T12:33:03;25.20;57.30
65752;DHT22;52486;51.098;13.770;2024-01-25T12:35:28;25.20;56.80
65752;DHT22;52486;51.098;13.770;2024-01-25T12:37:54;25.20;56.00
65752;DHT22;52486;51.098;13.770;2024-01-25T12:40:20;25.30;56.90
65752;DHT22;52486;51.098;13.770;2024-01-25T12:42:45;25.30;56.90
65752;DHT22;52486;51.098;13.770;2024-01-25T12:45:11;23.90;55.90
65752;DHT22;52486;51.098;13.770;2024-01-25T12:47:36;25.50;57.30
65752;DHT22;52486;51.098;13.770;2024-01-25T12:50:02;25.30;57.40
65752;DHT22;52486;51.098;13.770;2024-01-25T12:52:29;25.40;56.80
65752;DHT22;52486;51.098;13.770;2024-01-25T12:54:54;25.50;57.20
65752;DHT22;52486;51.098;13.770;2024-01-25T12:57:20;25.40;57.40
65752;DHT22;52486;51.098;13.770;2024-01-25T12:59:45;25.50;57.40
65752;DHT22;52486;51.098;13.770;2024-01-25T13:02:12;25.50;57.20
65752;DHT22;52486;51.098;13.770;2024-01-25T13:04:40;25.60;57.70
65752;DHT22;52486;51.098;13.770;2024-01-25T13:07:05;25.40;54.90
65752;DHT22;52486;51.098;13.770;2024-01-25T13:09:33;28.60;60.00
65752;DHT22;52486;51.098;13.770;2024-01-25T13:12:01;25.60;55.40
65752;DHT22;52486;51.098;13.770;2024-01-25T13:14:27;25.50;59.30
65752;DHT22;52486;51.098;13.770;2024-01-25T13:16:53;25.60;58.30
65752;DHT22;52486;51.098;13.770;2024-01-25T13:19:19;25.60;55.50
65752;DHT22;52486;51.098;13.770;2024-01-25T13:21:45;25.60;58.40
65752;DHT22;52486;51.098;13.770;2024-01-25T13:24:11;25.40;58.20
65752;DHT22;52486;51.098;13.770;2024-01-25T13:26:37;25.70;55.70
65752;DHT22;52486;51.098;13.770;2024-01-25T13:29:03;25.60;57.80
65752;DHT22;52486;51.098;13.770;2024-01-25T13:31:28;27.50;59.80
65752;DHT22;52486;51.098;13.770;2024-01-25T13:33:54;25.80;58.00
65752;DHT22;52486;51.098;13.770;2024-01-25T13:36:19;26.60;59.30
65752;DHT22;52486;51.098;13.770;2024-01-25T13:38:45;25.90;58.70
65752;DHT22;52486;51.098;13.770;2024-01-25T13:41:10;25.60;58.30
65752;DHT22;52486;51.098;13.770;2024-01-25T13:43:37;25.60;58.30
65752;DHT22;52486;51.098;13.770;2024-01-25T13:46:02;25.40;55.70
65752;DHT22;52486;51.098;13.770;2024-01-25T13:48:28;25.60;59.20
65752;DHT22;52486;51.098;13.770;2024-01-25T13:50:53;25.60;58.50
65752;DHT22;52486;51.098;13.770;2024-01-25T13:53:19;25.40;58.30
65752;DHT22;52486;51.098;13.770;2024-01-25T13:55:44;26.70;58.90
65752;DHT22;52486;51.098;13.770;2024-01-25T13:58:10;25.40;58.00
65752;DHT22;52486;51.098;13.770;2024-01-25T14:00:35;26.40;58.40
65752;DHT22;52486;51.098;13.770;2024-01-25T14:03:01;25.30;57.40
65752;DHT22;52486;51.098;13.770;2024-01-25T14:05:26;25.70;57.50
65752;DHT22;52486;51.098;13.770;2024-01-25T14:07:52;25.70;57.90
65752;DHT22;52486;51.098;13.770;2024-01-25T14:10:18;26.60;58.00
65752;DHT22;52486;51.098;13.770;2024-01-25T14:12:45;25.80;57.40
65752;DHT22;52486;51.098;13.770;2024-01-25T14:15:11;27.40;58.70
65752;DHT22;52486;51.098;13.770;2024-01-25T14:17:37;25.60;57.00
65752;DHT22;52486;51.098;13.770;2024-01-25T14:20:03;25.80;57.00
65752;DHT22;52486;51.098;13.770;2024-01-25T14:22:30;25.60;56.60
65752;DHT22;52486;51.098;13.770;2024-01-25T14:24:55;25.60;57.10
65752;DHT22;52486;51.098;13.770;2024-01-25T14:27:21;25.50;57.30
65752;DHT22;52486;51.098;13.770;2024-01-25T14:29:46;25.50;57.00
65752;DHT22;52486;51.098;13.770;2024-01-25T14:32:12;28.30;59.40
65752;DHT22;52486;51.098;13.770;2024-01-25T14:34:37;25.90;57.50
65752;DHT22;52486;51.098;13.770;2024-01-25T14:37:03;25.60;57.30
65752;DHT22;52486;51.098;13.770;2024-01-25T14:39:28;25.80;57.10
65752;DHT22;52486;51.098;13.770;2024-01-25T14:41:54;26.00;57.70
65752;DHT22;52486;51.098;13.770;2024-01-25T14:44:19;28.90;60.00
65752;DHT22;52486;51.098;13.770;2024-01-25T14:46:46;25.60;58.50
65752;DHT22;52486;51.098;13.770;2024-01-25T14:49:12;25.60;58.10
65752;DHT22;52486;51.098;13.770;2024-01-25T14:51:37;25.90;58.20
65752;DHT22;52486;51.098;13.770;2024-01-25T14:54:03;25.80;58.20
65752;DHT22;52486;51.098;13.770;2024-01-25T14:56:29;25.90;57.70
65752;DHT22;52486;51.098;13.770;2024-01-25T14:58:54;25.90;58.00
65752;DHT22;52486;51.098;13.770;2024-01-25T15:01:21;26.00;57.90
65752;DHT22;52486;51.098;13.770;2024-01-25T15:03:53;25.90;58.00
65752;DHT22;52486;51.098;13.770;2024-01-25T15:06:18;25.80;57.50